Terminal Aerodrome Forecast
Issued by NWS Houston/Galveston TX

Home | Current Version | Previous Version | Text Only | Print | Product List | Glossary On
Versions: 1 2 3 4 5 6 7 8 9 10 11 12 13 14 15 16 17 18 19 20 21 22 23 24
000
FTUS44 KHGX 231527 AAA
TAFHOU
TAF AMD
KHOU 231527Z 2315/2412 21004KT P6SM SCT024 SCT250
     FM231630 19007KT P6SM FEW040
     FM231900 15010KT P6SM VCTS SCT050CB SCT250
     FM232300 17008KT P6SM FEW060 SCT250
     FM240300 VRB03KT P6SM SCT250=

USA.gov is the U.S. government's official web portal to all federal, state and local government web resources and services.